sensor_id;sensor_type;location;lat;lon;timestamp;pressure;altitude;pressure_sealevel;temperature;humidity
7050;BME280;22263;52.260;10.548;2023-02-28T00:00:04;102047.25;;;1.20;100.00
7050;BME280;22263;52.260;10.548;2023-02-28T00:02:42;102036.41;;;1.10;100.00
7050;BME280;22263;52.260;10.548;2023-02-28T00:05:18;102051.94;;;1.10;100.00
7050;BME280;22263;52.260;10.548;2023-02-28T00:07:50;102053.53;;;1.11;100.00
7050;BME280;22263;52.260;10.548;2023-02-28T00:10:22;102038.56;;;1.08;100.00
7050;BME280;22263;52.260;10.548;2023-02-28T00:12:54;102052.22;;;1.03;100.00
7050;BME280;22263;52.260;10.548;2023-02-28T00:15:24;102049.22;;;1.00;100.00
7050;BME280;22263;52.260;10.548;2023-02-28T00:17:56;102042.97;;;0.94;100.00
7050;BME280;22263;52.260;10.548;2023-02-28T00:20:26;102051.69;;;0.91;100.00
7050;BME280;22263;52.260;10.548;2023-02-28T00:22:56;102043.00;;;0.84;100.00
7050;BME280;22263;52.260;10.548;2023-02-28T00:25:25;102044.63;;;0.85;100.00
7050;BME280;22263;52.260;10.548;2023-02-28T00:27:55;102042.72;;;0.80;100.00
7050;BME280;22263;52.260;10.548;2023-02-28T00:30:25;102046.53;;;0.79;100.00
7050;BME280;22263;52.260;10.548;2023-02-28T00:32:57;102048.72;;;0.72;100.00
7050;BME280;22263;52.260;10.548;2023-02-28T00:35:26;102044.66;;;0.65;100.00
7050;BME280;22263;52.260;10.548;2023-02-28T00:37:56;102042.19;;;0.63;100.00
7050;BME280;22263;52.260;10.548;2023-02-28T00:40:26;102048.47;;;0.64;100.00
7050;BME280;22263;52.260;10.548;2023-02-28T00:42:56;102045.22;;;0.62;100.00
7050;BME280;22263;52.260;10.548;2023-02-28T00:45:25;102047.94;;;0.62;100.00
7050;BME280;22263;52.260;10.548;2023-02-28T00:48:16;102043.31;;;0.62;100.00
7050;BME280;22263;52.260;10.548;2023-02-28T00:50:48;102040.03;;;0.65;100.00
7050;BME280;22263;52.260;10.548;2023-02-28T00:53:18;102035.41;;;0.66;100.00
7050;BME280;22263;52.260;10.548;2023-02-28T00:55:49;102035.41;;;0.66;100.00
7050;BME280;22263;52.260;10.548;2023-02-28T00:58:18;102037.56;;;0.69;100.00
7050;BME280;22263;52.260;10.548;2023-02-28T01:00:48;102042.47;;;0.67;100.00
7050;BME280;22263;52.260;10.548;2023-02-28T01:03:21;102041.94;;;0.70;100.00
7050;BME280;22263;52.260;10.548;2023-02-28T01:05:51;102045.19;;;0.72;100.00
7050;BME280;22263;52.260;10.548;2023-02-28T01:08:22;102035.41;;;0.71;100.00
7050;BME280;22263;52.260;10.548;2023-02-28T01:10:52;102047.63;;;0.78;100.00
7050;BME280;22263;52.260;10.548;2023-02-28T01:13:22;102045.16;;;0.82;100.00
7050;BME280;22263;52.260;10.548;2023-02-28T01:15:54;102032.91;;;0.84;100.00
7050;BME280;22263;52.260;10.548;2023-02-28T01:18:27;102036.72;;;0.83;100.00
7050;BME280;22263;52.260;10.548;2023-02-28T01:20:57;102029.94;;;0.81;100.00
7050;BME280;22263;52.260;10.548;2023-02-28T01:23:29;102028.03;;;0.81;100.00
7050;BME280;22263;52.260;10.548;2023-02-28T01:26:04;102025.31;;;0.76;100.00
7050;BME280;22263;52.260;10.548;2023-02-28T01:28:33;102034.28;;;0.82;100.00
7050;BME280;22263;52.260;10.548;2023-02-28T01:31:04;102035.66;;;0.84;100.00
7050;BME280;22263;52.260;10.548;2023-02-28T01:33:37;102033.19;;;0.88;100.00
7050;BME280;22263;52.260;10.548;2023-02-28T01:36:10;102029.09;;;0.91;100.00
7050;BME280;22263;52.260;10.548;2023-02-28T01:38:41;102022.28;;;0.93;100.00
7050;BME280;22263;52.260;10.548;2023-02-28T01:41:16;102026.06;;;0.97;100.00
7050;BME280;22263;52.260;10.548;2023-02-28T01:43:55;102016.81;;;0.98;100.00
7050;BME280;22263;52.260;10.548;2023-02-28T01:46:25;102017.34;;;1.05;100.00
7050;BME280;22263;52.260;10.548;2023-02-28T01:49:00;102016.22;;;1.06;100.00
7050;BME280;22263;52.260;10.548;2023-02-28T01:51:35;102015.41;;;1.06;100.00
7050;BME280;22263;52.260;10.548;2023-02-28T01:54:09;102013.50;;;1.06;100.00
7050;BME280;22263;52.260;10.548;2023-02-28T01:56:44;102003.75;;;1.00;100.00
7050;BME280;22263;52.260;10.548;2023-02-28T01:59:21;102001.56;;;0.92;100.00
7050;BME280;22263;52.260;10.548;2023-02-28T02:01:53;102014.66;;;0.95;100.00
7050;BME280;22263;52.260;10.548;2023-02-28T02:04:32;102013.03;;;0.89;100.00
7050;BME280;22263;52.260;10.548;2023-02-28T02:07:05;102005.69;;;0.84;100.00
7050;BME280;22263;52.260;10.548;2023-02-28T02:09:35;102015.78;;;0.79;100.00
7050;BME280;22263;52.260;10.548;2023-02-28T02:12:10;102019.06;;;0.76;100.00
7050;BME280;22263;52.260;10.548;2023-02-28T02:14:50;102006.28;;;0.71;100.00
7050;BME280;22263;52.260;10.548;2023-02-28T02:17:32;102005.47;;;0.66;100.00
7050;BME280;22263;52.260;10.548;2023-02-28T02:20:32;102009.81;;;0.67;100.00
7050;BME280;22263;52.260;10.548;2023-02-28T02:23:27;102010.91;;;0.66;100.00
7050;BME280;22263;52.260;10.548;2023-02-28T02:29:10;102001.66;;;0.57;100.00
7050;BME280;22263;52.260;10.548;2023-02-28T02:31:54;101998.41;;;0.50;100.00
7050;BME280;22263;52.260;10.548;2023-02-28T02:34:37;101998.66;;;0.53;100.00
7050;BME280;22263;52.260;10.548;2023-02-28T02:37:18;102003.56;;;0.51;100.00
7050;BME280;22263;52.260;10.548;2023-02-28T02:39:53;102004.09;;;0.53;100.00
7050;BME280;22263;52.260;10.548;2023-02-28T02:42:39;102000.03;;;0.61;100.00
7050;BME280;22263;52.260;10.548;2023-02-28T02:45:13;102005.47;;;0.61;100.00
7050;BME280;22263;52.260;10.548;2023-02-28T02:47:46;102006.00;;;0.58;100.00
7050;BME280;22263;52.260;10.548;2023-02-28T02:50:22;102002.19;;;0.64;100.00
7050;BME280;22263;52.260;10.548;2023-02-28T02:53:00;102008.69;;;0.73;100.00
7050;BME280;22263;52.260;10.548;2023-02-28T02:55:34;102007.06;;;0.77;100.00
7050;BME280;22263;52.260;10.548;2023-02-28T02:58:09;102025.00;;;0.83;100.00
7050;BME280;22263;52.260;10.548;2023-02-28T03:00:45;102022.28;;;0.88;100.00
7050;BME280;22263;52.260;10.548;2023-02-28T03:03:18;102027.47;;;0.90;100.00
7050;BME280;22263;52.260;10.548;2023-02-28T03:05:59;102024.47;;;0.91;100.00
7050;BME280;22263;52.260;10.548;2023-02-28T03:08:34;102030.44;;;0.93;100.00
7050;BME280;22263;52.260;10.548;2023-02-28T03:11:07;102023.38;;;0.87;100.00
7050;BME280;22263;52.260;10.548;2023-02-28T03:13:55;102032.09;;;0.94;100.00
7050;BME280;22263;52.260;10.548;2023-02-28T03:16:36;102029.09;;;0.96;100.00
7050;BME280;22263;52.260;10.548;2023-02-28T03:19:35;102028.25;;;1.00;100.00
7050;BME280;22263;52.260;10.548;2023-02-28T03:22:17;102029.34;;;1.04;100.00
7050;BME280;22263;52.260;10.548;2023-02-28T03:24:52;102031.25;;;1.04;100.00
7050;BME280;22263;52.260;10.548;2023-02-28T03:27:29;102029.84;;;1.06;100.00
7050;BME280;22263;52.260;10.548;2023-02-28T03:30:01;102033.69;;;1.10;100.00
7050;BME280;22263;52.260;10.548;2023-02-28T03:32:35;102023.88;;;1.09;100.00
7050;BME280;22263;52.260;10.548;2023-02-28T03:35:08;102029.84;;;1.11;100.00
7050;BME280;22263;52.260;10.548;2023-02-28T03:37:44;102030.41;;;1.13;100.00
7050;BME280;22263;52.260;10.548;2023-02-28T03:40:17;102019.75;;;1.17;100.00
7050;BME280;22263;52.260;10.548;2023-02-28T03:42:52;102032.28;;;1.18;100.00
7050;BME280;22263;52.260;10.548;2023-02-28T03:45:27;102033.34;;;1.22;100.00
7050;BME280;22263;52.260;10.548;2023-02-28T03:48:02;102026.28;;;1.21;100.00
7050;BME280;22263;52.260;10.548;2023-02-28T03:50:36;102027.09;;;1.21;100.00
7050;BME280;22263;52.260;10.548;2023-02-28T03:53:12;102022.72;;;1.25;100.00
7050;BME280;22263;52.260;10.548;2023-02-28T03:55:46;102025.44;;;1.25;100.00
7050;BME280;22263;52.260;10.548;2023-02-28T03:58:21;102022.47;;;1.22;100.00
7050;BME280;22263;52.260;10.548;2023-02-28T04:00:55;102023.81;;;1.24;100.00
7050;BME280;22263;52.260;10.548;2023-02-28T04:03:27;102023.53;;;1.26;100.00
7050;BME280;22263;52.260;10.548;2023-02-28T04:05:57;102024.34;;;1.26;100.00
7050;BME280;22263;52.260;10.548;2023-02-28T04:08:30;102033.88;;;1.29;100.00
7050;BME280;22263;52.260;10.548;2023-02-28T04:11:03;102025.41;;;1.30;100.00
7050;BME280;22263;52.260;10.548;2023-02-28T04:13:34;102022.41;;;1.32;100.00
7050;BME280;22263;52.260;10.548;2023-02-28T04:16:06;102023.25;;;1.33;100.00
7050;BME280;22263;52.260;10.548;2023-02-28T04:18:58;102022.44;;;1.27;100.00
7050;BME280;22263;52.260;10.548;2023-02-28T04:21:29;102018.63;;;1.28;100.00
7050;BME280;22263;52.260;10.548;2023-02-28T04:24:02;102021.34;;;1.28;100.00
7050;BME280;22263;52.260;10.548;2023-02-28T04:26:34;102025.16;;;1.27;100.00
7050;BME280;22263;52.260;10.548;2023-02-28T04:29:05;102014.28;;;1.27;100.00
7050;BME280;22263;52.260;10.548;2023-02-28T04:31:35;102026.81;;;1.28;100.00
7050;BME280;22263;52.260;10.548;2023-02-28T04:34:05;102026.81;;;1.28;100.00
7050;BME280;22263;52.260;10.548;2023-02-28T04:36:35;102032.53;;;1.26;100.00
7050;BME280;22263;52.260;10.548;2023-02-28T04:39:07;102036.63;;;1.24;100.00
7050;BME280;22263;52.260;10.548;2023-02-28T04:41:36;102034.19;;;1.22;100.00
7050;BME280;22263;52.260;10.548;2023-02-28T04:44:06;102030.88;;;1.25;100.00
7050;BME280;22263;52.260;10.548;2023-02-28T04:46:35;102033.91;;;1.19;100.00
7050;BME280;22263;52.260;10.548;2023-02-28T04:49:05;102033.91;;;1.19;100.00
7050;BME280;22263;52.260;10.548;2023-02-28T04:51:35;102034.75;;;1.19;100.00
7050;BME280;22263;52.260;10.548;2023-02-28T04:54:07;102034.19;;;1.17;100.00
7050;BME280;22263;52.260;10.548;2023-02-28T04:56:37;102028.75;;;1.17;100.00
7050;BME280;22263;52.260;10.548;2023-02-28T04:59:06;102028.19;;;1.15;100.00
7050;BME280;22263;52.260;10.548;2023-02-28T05:01:36;102030.41;;;1.08;100.00
7050;BME280;22263;52.260;10.548;2023-02-28T05:04:06;102028.25;;;1.05;100.00
7050;BME280;22263;52.260;10.548;2023-02-28T05:06:36;102022.50;;;1.07;100.00
7050;BME280;22263;52.260;10.548;2023-02-28T05:09:08;102024.97;;;1.08;100.00
7050;BME280;22263;52.260;10.548;2023-02-28T05:11:39;102033.13;;;1.13;100.00
7050;BME280;22263;52.260;10.548;2023-02-28T05:14:11;102021.38;;;1.18;100.00
7050;BME280;22263;52.260;10.548;2023-02-28T05:16:41;102033.63;;;1.20;100.00
7050;BME280;22263;52.260;10.548;2023-02-28T05:19:11;102033.91;;;1.19;100.00
7050;BME280;22263;52.260;10.548;2023-02-28T05:21:41;102027.66;;;1.18;100.00
7050;BME280;22263;52.260;10.548;2023-02-28T05:24:20;102028.47;;;1.19;100.00
7050;BME280;22263;52.260;10.548;2023-02-28T05:26:53;102020.56;;;1.22;100.00
7050;BME280;22263;52.260;10.548;2023-02-28T05:29:23;102025.44;;;1.20;100.00
7050;BME280;22263;52.260;10.548;2023-02-28T05:31:52;102027.63;;;1.23;100.00
7050;BME280;22263;52.260;10.548;2023-02-28T05:34:22;102030.38;;;1.23;100.00
7050;BME280;22263;52.260;10.548;2023-02-28T05:36:51;102033.59;;;1.25;100.00
7050;BME280;22263;52.260;10.548;2023-02-28T05:39:23;102036.06;;;1.27;100.00
7050;BME280;22263;52.260;10.548;2023-02-28T05:41:53;102027.34;;;1.25;100.00
7050;BME280;22263;52.260;10.548;2023-02-28T05:44:23;102026.28;;;1.21;100.00
7050;BME280;22263;52.260;10.548;2023-02-28T05:46:52;102030.13;;;1.20;100.00
7050;BME280;22263;52.260;10.548;2023-02-28T05:49:22;102035.56;;;1.20;100.00
7050;BME280;22263;52.260;10.548;2023-02-28T05:51:52;102033.13;;;1.13;100.00
7050;BME280;22263;52.260;10.548;2023-02-28T05:54:24;102035.28;;;1.16;100.00
7050;BME280;22263;52.260;10.548;2023-02-28T05:56:53;102038.56;;;1.13;100.00
7050;BME280;22263;52.260;10.548;2023-02-28T05:59:23;102044.59;;;1.10;100.00
7050;BME280;22263;52.260;10.548;2023-02-28T06:01:52;102040.75;;;1.06;100.00
7050;BME280;22263;52.260;10.548;2023-02-28T06:04:22;102041.31;;;1.03;100.00
7050;BME280;22263;52.260;10.548;2023-02-28T06:06:58;102049.22;;;1.00;100.00
7050;BME280;22263;52.260;10.548;2023-02-28T06:09:30;102060.13;;;1.00;100.00
7050;BME280;22263;52.260;10.548;2023-02-28T06:12:01;102054.13;;;0.98;100.00
7050;BME280;22263;52.260;10.548;2023-02-28T06:14:33;102056.31;;;0.96;100.00
7050;BME280;22263;52.260;10.548;2023-02-28T06:17:04;102056.31;;;0.96;100.00
7050;BME280;22263;52.260;10.548;2023-02-28T06:19:36;102057.69;;;0.93;100.00
7050;BME280;22263;52.260;10.548;2023-02-28T06:22:07;102064.22;;;0.92;100.00
7050;BME280;22263;52.260;10.548;2023-02-28T06:24:40;102055.78;;;0.94;100.00
7050;BME280;22263;52.260;10.548;2023-02-28T06:27:09;102060.13;;;0.95;100.00
7050;BME280;22263;52.260;10.548;2023-02-28T06:29:39;102052.78;;;0.90;100.00
7050;BME280;22263;52.260;10.548;2023-02-28T06:32:08;102065.56;;;0.95;100.00
7050;BME280;22263;52.260;10.548;2023-02-28T06:34:38;102066.91;;;0.97;100.00
7050;BME280;22263;52.260;10.548;2023-02-28T06:37:08;102063.38;;;0.97;100.00
7050;BME280;22263;52.260;10.548;2023-02-28T06:39:40;102073.75;;;1.00;100.00
7050;BME280;22263;52.260;10.548;2023-02-28T06:42:09;102077.56;;;0.99;100.00
7050;BME280;22263;52.260;10.548;2023-02-28T06:44:39;102073.75;;;1.00;100.00
7050;BME280;22263;52.260;10.548;2023-02-28T06:47:09;102081.91;;;1.00;100.00
7050;BME280;22263;52.260;10.548;2023-02-28T06:49:39;102082.72;;;1.00;100.00
7050;BME280;22263;52.260;10.548;2023-02-28T06:52:08;102086.53;;;0.99;100.00
7050;BME280;22263;52.260;10.548;2023-02-28T06:54:41;102090.34;;;0.98;100.00
7050;BME280;22263;52.260;10.548;2023-02-28T06:57:10;102084.38;;;0.91;100.00
7050;BME280;22263;52.260;10.548;2023-02-28T06:59:40;102081.09;;;0.99;100.00
7050;BME280;22263;52.260;10.548;2023-02-28T07:02:10;102088.16;;;1.05;100.00
7050;BME280;22263;52.260;10.548;2023-02-28T07:04:39;102089.25;;;1.09;100.00
7050;BME280;22263;52.260;10.548;2023-02-28T07:07:11;102088.97;;;1.06;100.00
7050;BME280;22263;52.260;10.548;2023-02-28T07:09:43;102094.41;;;1.11;100.00
7050;BME280;22263;52.260;10.548;2023-02-28T07:12:13;102093.56;;;1.15;100.00
7050;BME280;22263;52.260;10.548;2023-02-28T07:14:43;102088.66;;;1.17;100.00
7050;BME280;22263;52.260;10.548;2023-02-28T07:17:12;102097.06;;;1.31;100.00
7050;BME280;22263;52.260;10.548;2023-02-28T07:19:42;102097.34;;;1.35;100.00
7050;BME280;22263;52.260;10.548;2023-02-28T07:22:11;102102.22;;;1.48;100.00
7050;BME280;22263;52.260;10.548;2023-02-28T07:24:44;102101.38;;;1.52;100.00
7050;BME280;22263;52.260;10.548;2023-02-28T07:27:14;102101.09;;;1.54;100.00
7050;BME280;22263;52.260;10.548;2023-02-28T07:29:53;102106.50;;;1.64;100.00
7050;BME280;22263;52.260;10.548;2023-02-28T07:32:24;102097.66;;;1.87;100.00
7050;BME280;22263;52.260;10.548;2023-02-28T07:34:53;102110.50;;;2.31;100.00
7050;BME280;22263;52.260;10.548;2023-02-28T07:37:23;102096.41;;;2.57;100.00
7050;BME280;22263;52.260;10.548;2023-02-28T07:39:55;102091.06;;;2.76;100.00
7050;BME280;22263;52.260;10.548;2023-02-28T07:42:25;102095.19;;;2.69;100.00
7050;BME280;22263;52.260;10.548;2023-02-28T07:44:54;102103.09;;;3.04;100.00
7050;BME280;22263;52.260;10.548;2023-02-28T07:47:25;102090.53;;;3.27;100.00
7050;BME280;22263;52.260;10.548;2023-02-28T07:49:55;102091.72;;;3.44;100.00
7050;BME280;22263;52.260;10.548;2023-02-28T07:52:24;102093.81;;;3.53;100.00
7050;BME280;22263;52.260;10.548;2023-02-28T07:54:56;102092.94;;;3.57;100.00
7050;BME280;22263;52.260;10.548;2023-02-28T07:57:26;102101.69;;;3.59;100.00
7050;BME280;22263;52.260;10.548;2023-02-28T07:59:55;102087.16;;;4.38;100.00
7050;BME280;22263;52.260;10.548;2023-02-28T08:02:25;102081.41;;;4.72;100.00
7050;BME280;22263;52.260;10.548;2023-02-28T08:04:54;102089.94;;;4.84;100.00
7050;BME280;22263;52.260;10.548;2023-02-28T08:07:24;102085.78;;;4.73;100.00
7050;BME280;22263;52.260;10.548;2023-02-28T08:09:56;102092.28;;;4.77;100.00
7050;BME280;22263;52.260;10.548;2023-02-28T08:12:26;102088.03;;;5.58;100.00
7050;BME280;22263;52.260;10.548;2023-02-28T08:14:56;102085.94;;;6.19;100.00
7050;BME280;22263;52.260;10.548;2023-02-28T08:17:25;102094.72;;;6.29;100.00
7050;BME280;22263;52.260;10.548;2023-02-28T08:19:55;102089.00;;;7.15;100.00
7050;BME280;22263;52.260;10.548;2023-02-28T08:22:24;102096.41;;;7.06;100.00
7050;BME280;22263;52.260;10.548;2023-02-28T08:24:57;102099.50;;;6.82;100.00
7050;BME280;22263;52.260;10.548;2023-02-28T08:27:26;102099.75;;;6.49;100.00
7050;BME280;22263;52.260;10.548;2023-02-28T08:29:56;102093.72;;;6.61;100.00
7050;BME280;22263;52.260;10.548;2023-02-28T08:32:25;102088.50;;;8.09;100.00
7050;BME280;22263;52.260;10.548;2023-02-28T08:34:56;102092.78;;;9.68;85.92
7050;BME280;22263;52.260;10.548;2023-02-28T08:37:26;102090.84;;;9.89;75.88
7050;BME280;22263;52.260;10.548;2023-02-28T08:39:58;102091.25;;;10.50;70.00
7050;BME280;22263;52.260;10.548;2023-02-28T08:42:27;102084.38;;;11.46;61.06
7050;BME280;22263;52.260;10.548;2023-02-28T08:44:57;102071.06;;;12.12;54.14
7050;BME280;22263;52.260;10.548;2023-02-28T08:47:27;102079.75;;;12.66;50.91
7050;BME280;22263;52.260;10.548;2023-02-28T08:49:56;102081.78;;;13.41;48.32
7050;BME280;22263;52.260;10.548;2023-02-28T08:52:26;102070.63;;;13.88;45.76
7050;BME280;22263;52.260;10.548;2023-02-28T08:54:58;102072.06;;;14.17;44.18
7050;BME280;22263;52.260;10.548;2023-02-28T08:57:28;102076.56;;;14.60;43.79
7050;BME280;22263;52.260;10.548;2023-02-28T08:59:58;102080.72;;;14.89;42.82
7050;BME280;22263;52.260;10.548;2023-02-28T09:02:31;102079.06;;;15.07;42.34
7050;BME280;22263;52.260;10.548;2023-02-28T09:05:01;102083.81;;;15.48;41.74
7050;BME280;22263;52.260;10.548;2023-02-28T09:07:30;102077.59;;;15.81;40.93
7050;BME280;22263;52.260;10.548;2023-02-28T09:10:03;102078.00;;;16.09;40.20
7050;BME280;22263;52.260;10.548;2023-02-28T09:12:34;102083.78;;;16.24;39.27
7050;BME280;22263;52.260;10.548;2023-02-28T09:15:05;102078.75;;;16.66;39.14
7050;BME280;22263;52.260;10.548;2023-02-28T09:17:35;102071.66;;;16.72;38.73
7050;BME280;22263;52.260;10.548;2023-02-28T09:20:06;102070.06;;;16.75;38.48
7050;BME280;22263;52.260;10.548;2023-02-28T09:22:36;102070.03;;;16.71;38.57
7050;BME280;22263;52.260;10.548;2023-02-28T09:25:08;102072.16;;;17.22;38.03
7050;BME280;22263;52.260;10.548;2023-02-28T09:27:37;102077.31;;;17.16;38.00
7050;BME280;22263;52.260;10.548;2023-02-28T09:30:10;102079.34;;;16.82;37.54
7050;BME280;22263;52.260;10.548;2023-02-28T09:32:40;102083.38;;;16.55;38.34
7050;BME280;22263;52.260;10.548;2023-02-28T09:35:19;102086.09;;;16.48;37.66
7050;BME280;22263;52.260;10.548;2023-02-28T09:37:49;102086.78;;;14.71;39.84
7050;BME280;22263;52.260;10.548;2023-02-28T09:40:24;102088.13;;;14.23;41.60
7050;BME280;22263;52.260;10.548;2023-02-28T09:42:55;102091.38;;;13.75;42.00
7050;BME280;22263;52.260;10.548;2023-02-28T09:45:29;102097.44;;;12.34;44.75
7050;BME280;22263;52.260;10.548;2023-02-28T09:48:02;102093.19;;;11.15;48.36
7050;BME280;22263;52.260;10.548;2023-02-28T09:50:35;102102.31;;;10.50;52.30
7050;BME280;22263;52.260;10.548;2023-02-28T09:53:15;102094.81;;;9.80;55.62
7050;BME280;22263;52.260;10.548;2023-02-28T09:55:54;102108.84;;;9.28;59.52
7050;BME280;22263;52.260;10.548;2023-02-28T09:58:34;102108.00;;;10.03;62.65
7050;BME280;22263;52.260;10.548;2023-02-28T10:01:12;102103.16;;;11.53;53.14
7050;BME280;22263;52.260;10.548;2023-02-28T10:03:54;102089.84;;;12.87;47.30
7050;BME280;22263;52.260;10.548;2023-02-28T10:06:28;102090.44;;;13.86;44.09
7050;BME280;22263;52.260;10.548;2023-02-28T10:09:02;102112.31;;;11.90;45.98
7050;BME280;22263;52.260;10.548;2023-02-28T10:11:39;102115.66;;;11.02;50.07
7050;BME280;22263;52.260;10.548;2023-02-28T10:14:13;102118.47;;;10.81;51.45
7050;BME280;22263;52.260;10.548;2023-02-28T10:16:47;102112.59;;;10.82;47.59
7050;BME280;22263;52.260;10.548;2023-02-28T10:19:21;102106.72;;;10.01;48.85
7050;BME280;22263;52.260;10.548;2023-02-28T10:21:55;102112.97;;;9.51;53.34
7050;BME280;22263;52.260;10.548;2023-02-28T10:24:32;102110.00;;;9.65;54.56
7050;BME280;22263;52.260;10.548;2023-02-28T10:27:13;102109.81;;;9.32;55.48
7050;BME280;22263;52.260;10.548;2023-02-28T10:29:46;102107.97;;;9.83;55.50
7050;BME280;22263;52.260;10.548;2023-02-28T10:32:18;102108.78;;;10.33;52.64
7050;BME280;22263;52.260;10.548;2023-02-28T10:34:51;102101.19;;;11.29;48.50
7050;BME280;22263;52.260;10.548;2023-02-28T10:37:21;102093.00;;;12.17;45.37
7050;BME280;22263;52.260;10.548;2023-02-28T10:39:51;102096.25;;;12.47;44.09
7050;BME280;22263;52.260;10.548;2023-02-28T10:42:26;102088.63;;;12.72;43.14
7050;BME280;22263;52.260;10.548;2023-02-28T10:45:10;102102.13;;;12.18;43.28
7050;BME280;22263;52.260;10.548;2023-02-28T10:47:51;102094.16;;;13.00;42.24
7050;BME280;22263;52.260;10.548;2023-02-28T10:50:32;102098.28;;;13.81;39.40
7050;BME280;22263;52.260;10.548;2023-02-28T10:53:28;102105.19;;;12.96;39.30
7050;BME280;22263;52.260;10.548;2023-02-28T10:56:06;102105.88;;;11.73;41.01
7050;BME280;22263;52.260;10.548;2023-02-28T10:58:52;102101.81;;;11.02;43.48
7050;BME280;22263;52.260;10.548;2023-02-28T11:01:24;102107.59;;;11.09;47.16
7050;BME280;22263;52.260;10.548;2023-02-28T11:03:54;102094.31;;;11.02;44.49
7050;BME280;22263;52.260;10.548;2023-02-28T11:06:27;102105.09;;;11.28;40.81
7050;BME280;22263;52.260;10.548;2023-02-28T11:09:00;102100.41;;;10.42;41.07
7050;BME280;22263;52.260;10.548;2023-02-28T11:11:41;102100.44;;;10.21;41.98
7050;BME280;22263;52.260;10.548;2023-02-28T11:14:19;102098.28;;;9.97;42.16
7050;BME280;22263;52.260;10.548;2023-02-28T11:16:50;102100.94;;;10.15;43.31
7050;BME280;22263;52.260;10.548;2023-02-28T11:19:24;102087.03;;;11.55;42.26
7050;BME280;22263;52.260;10.548;2023-02-28T11:21:56;102073.81;;;12.96;38.78
7050;BME280;22263;52.260;10.548;2023-02-28T11:24:28;102063.22;;;13.29;38.17
7050;BME280;22263;52.260;10.548;2023-02-28T11:26:59;102067.50;;;13.58;37.68
7050;BME280;22263;52.260;10.548;2023-02-28T11:29:33;102064.31;;;13.56;37.46
7050;BME280;22263;52.260;10.548;2023-02-28T11:32:10;102062.59;;;14.37;36.85
7050;BME280;22263;52.260;10.548;2023-02-28T11:34:42;102052.03;;;14.65;35.70
7050;BME280;22263;52.260;10.548;2023-02-28T11:37:13;102067.41;;;13.86;36.05
7050;BME280;22263;52.260;10.548;2023-02-28T11:39:45;102061.50;;;14.61;35.47
7050;BME280;22263;52.260;10.548;2023-02-28T11:42:39;102057.28;;;15.12;33.88
7050;BME280;22263;52.260;10.548;2023-02-28T11:45:23;102056.75;;;15.75;33.92
7050;BME280;22263;52.260;10.548;2023-02-28T11:48:01;102059.31;;;15.61;33.45
7050;BME280;22263;52.260;10.548;2023-02-28T11:50:42;102052.03;;;15.79;32.64
7050;BME280;22263;52.260;10.548;2023-02-28T11:53:22;102045.56;;;15.49;32.68
7050;BME280;22263;52.260;10.548;2023-02-28T11:56:00;102044.09;;;15.32;32.99
7050;BME280;22263;52.260;10.548;2023-02-28T11:58:40;102042.03;;;16.04;32.17
7050;BME280;22263;52.260;10.548;2023-02-28T12:01:23;102041.78;;;16.46;32.50
7050;BME280;22263;52.260;10.548;2023-02-28T12:04:03;102037.69;;;16.70;31.37
7050;BME280;22263;52.260;10.548;2023-02-28T12:06:45;102042.06;;;16.68;31.20
7050;BME280;22263;52.260;10.548;2023-02-28T12:09:28;102035.63;;;16.64;31.59
7050;BME280;22263;52.260;10.548;2023-02-28T12:12:06;102029.91;;;17.81;31.11
7050;BME280;22263;52.260;10.548;2023-02-28T12:15:04;102028.22;;;18.46;30.16
7050;BME280;22263;52.260;10.548;2023-02-28T12:17:55;102031.56;;;18.87;29.39
7050;BME280;22263;52.260;10.548;2023-02-28T12:20:34;102021.19;;;19.26;29.32
7050;BME280;22263;52.260;10.548;2023-02-28T12:26:18;102035.25;;;18.08;30.65
7050;BME280;22263;52.260;10.548;2023-02-28T12:28:53;102032.09;;;18.13;29.69
7050;BME280;22263;52.260;10.548;2023-02-28T12:31:29;102021.47;;;18.54;29.69
7050;BME280;22263;52.260;10.548;2023-02-28T12:34:06;102016.31;;;18.77;29.26
7050;BME280;22263;52.260;10.548;2023-02-28T12:36:39;102018.38;;;19.12;29.34
7050;BME280;22263;52.260;10.548;2023-02-28T12:39:15;102003.53;;;19.43;28.68
7050;BME280;22263;52.260;10.548;2023-02-28T12:41:53;102007.94;;;18.84;28.98
7050;BME280;22263;52.260;10.548;2023-02-28T12:44:28;102007.00;;;18.48;29.54
7050;BME280;22263;52.260;10.548;2023-02-28T12:47:03;101994.28;;;18.65;29.20
7050;BME280;22263;52.260;10.548;2023-02-28T12:49:39;101994.72;;;18.88;29.28
7050;BME280;22263;52.260;10.548;2023-02-28T12:52:11;102002.41;;;18.01;29.31
7050;BME280;22263;52.260;10.548;2023-02-28T12:54:48;101999.81;;;17.64;29.86
7050;BME280;22263;52.260;10.548;2023-02-28T12:57:31;101992.31;;;17.82;30.14
7050;BME280;22263;52.260;10.548;2023-02-28T13:00:08;101986.91;;;17.56;30.21
7050;BME280;22263;52.260;10.548;2023-02-28T13:02:55;101998.84;;;16.98;30.83
7050;BME280;22263;52.260;10.548;2023-02-28T13:08:59;101972.41;;;16.15;30.87
7050;BME280;22263;52.260;10.548;2023-02-28T13:11:32;101973.16;;;16.12;31.70
7050;BME280;22263;52.260;10.548;2023-02-28T13:14:05;101964.75;;;16.08;31.43
7050;BME280;22263;52.260;10.548;2023-02-28T13:17:01;101968.84;;;15.88;31.63
7050;BME280;22263;52.260;10.548;2023-02-28T13:19:33;101961.28;;;15.59;31.88
7050;BME280;22263;52.260;10.548;2023-02-28T13:22:17;101954.72;;;15.74;32.03
7050;BME280;22263;52.260;10.548;2023-02-28T13:24:49;101945.50;;;16.00;31.86
7050;BME280;22263;52.260;10.548;2023-02-28T13:27:31;101948.59;;;16.25;31.68
7050;BME280;22263;52.260;10.548;2023-02-28T13:33:25;101939.56;;;16.38;31.51
7050;BME280;22263;52.260;10.548;2023-02-28T13:36:23;101950.56;;;15.91;31.22